Terminal Aerodrome Forecast
Issued by NWS Pocatello, ID

Home | Current Version | Previous Version | Text Only | Print | Product List | Glossary On
Versions: 1 2 3 4 5 6 7 8 9 10 11 12 13 14 15 16 17 18
000
FTUS45 KPIH 152300
TAFPIH
TAF
KPIH 152338Z 1600/1624 25033G42KT P6SM SCT030 BKN060
     FM160300 24016G25KT P6SM FEW070 SCT200
     FM160600 22009KT P6SM BKN150
     FM161900 25013G20KT P6SM BKN120=

USA.gov is the U.S. government's official web portal to all federal, state and local government web resources and services.